Time;durP1;ratioP1;P1;durP2;ratioP2;P2;SDS_P1;SDS_P2;PMS_P1;PMS_P2;Temp;Humidity;BMP_temperature;BMP_pressure;BME280_temperature;BME280_humidity;BME280_pressure;Samples;Min_cycle;Max_cycle;Signal;HPM_P1;HPM_P2
2023/06/24 00:02:23;;;;;;;9.40;5.10;;;19.30;99.90;;;;;;10327284;28;20245;-91
2023/06/24 00:07:27;;;;;;;9.15;4.93;;;19.30;99.90;;;;;;10328229;28;20236;-91
2023/06/24 00:12:30;;;;;;;5.68;4.95;;;19.20;99.90;;;;;;10327719;28;20264;-91
2023/06/24 00:17:32;;;;;;;5.82;4.97;;;19.20;99.90;;;;;;10327501;28;20277;-91
2023/06/24 00:22:35;;;;;;;5.53;5.00;;;19.10;99.90;;;;;;10328894;28;20322;-91
2023/06/24 00:27:38;;;;;;;6.07;5.43;;;19.20;99.90;;;;;;10328120;28;20268;-91
2023/06/24 00:32:40;;;;;;;17.40;5.65;;;19.20;99.90;;;;;;10327430;28;20323;-92
2023/06/24 00:37:45;;;;;;;6.05;5.43;;;19.10;99.90;;;;;;10328414;28;20238;-91
2023/06/24 00:42:47;;;;;;;9.27;5.00;;;19.20;99.90;;;;;;10326014;28;20302;-91
2023/06/24 00:47:51;;;;;;;6.20;4.63;;;19.10;99.90;;;;;;10327832;28;20253;-92
2023/06/24 00:52:54;;;;;;;9.43;4.70;;;19.00;99.90;;;;;;10326611;28;20268;-91
2023/06/24 00:57:59;;;;;;;5.63;5.10;;;19.10;99.90;;;;;;10326174;28;20213;-91
2023/06/24 01:03:03;;;;;;;6.10;4.88;;;19.10;99.90;;;;;;10324632;28;20244;-92
2023/06/24 01:08:05;;;;;;;6.88;4.47;;;19.00;99.90;;;;;;10309548;28;20244;-91
2023/06/24 01:13:08;;;;;;;10.68;5.28;;;19.10;99.90;;;;;;10327170;28;20311;-92
2023/06/24 01:18:27;;;;;;;4.85;4.45;;;18.90;99.90;;;;;;10325439;28;20221;-91
2023/06/24 01:23:39;;;;;;;6.00;5.35;;;18.90;99.90;;;;;;10325231;28;20244;-92
2023/06/24 01:29:00;;;;;;;4.30;3.90;;;18.90;99.90;;;;;;10325431;28;20271;-91
2023/06/24 01:34:14;;;;;;;5.53;4.88;;;18.80;99.90;;;;;;10325264;28;20237;-91
2023/06/24 01:39:22;;;;;;;7.97;4.72;;;18.80;99.90;;;;;;10324120;28;20244;-91
2023/06/24 01:44:27;;;;;;;7.10;4.22;;;;;;;;;;10324577;28;20636;-91
2023/06/24 01:49:33;;;;;;;8.30;4.38;;;18.80;99.90;;;;;;10324276;28;20279;-92
2023/06/24 01:54:38;;;;;;;4.80;4.40;;;18.80;99.90;;;;;;10324284;28;20381;-91
2023/06/24 01:59:44;;;;;;;4.60;4.15;;;19.00;99.90;;;;;;10308357;28;20244;-92
2023/06/24 02:04:51;;;;;;;6.60;4.10;;;19.10;99.90;;;;;;10323951;28;20782;-92
2023/06/24 02:09:54;;;;;;;4.78;4.20;;;19.10;99.90;;;;;;10325903;28;20269;-91
2023/06/24 02:14:59;;;;;;;6.30;4.25;;;19.10;99.90;;;;;;10330049;28;20832;-91
2023/06/24 02:20:05;;;;;;;4.85;4.35;;;19.10;99.90;;;;;;10315221;28;20249;-90
2023/06/24 02:25:08;;;;;;;4.28;3.88;;;19.20;99.90;;;;;;10333609;28;20275;-91
2023/06/24 02:30:12;;;;;;;4.30;3.90;;;19.20;99.90;;;;;;10331291;28;20315;-91
2023/06/24 02:35:15;;;;;;;5.03;4.38;;;19.00;97.90;;;;;;10330610;28;20712;-91
2023/06/24 02:40:18;;;;;;;5.20;4.05;;;19.10;99.90;;;;;;10331805;28;20245;-91
2023/06/24 02:45:21;;;;;;;6.22;4.35;;;19.20;99.90;;;;;;10314804;28;20708;-90
2023/06/24 02:50:26;;;;;;;4.53;4.00;;;19.20;99.90;;;;;;10330614;28;20295;-91
2023/06/24 02:55:32;;;;;;;6.32;4.93;;;19.20;99.90;;;;;;10332277;28;20240;-90
2023/06/24 03:00:38;;;;;;;6.00;4.82;;;19.30;99.90;;;;;;10331524;28;20244;-90
2023/06/24 03:05:44;;;;;;;5.22;4.00;;;19.20;99.90;;;;;;10332100;28;20644;-90
2023/06/24 03:10:47;;;;;;;5.10;4.60;;;19.10;99.90;;;;;;10331751;28;20264;-90
2023/06/24 03:15:56;;;;;;;7.18;4.47;;;19.10;99.90;;;;;;10329611;28;20256;-89
2023/06/24 03:20:59;;;;;;;4.88;4.38;;;19.10;99.90;;;;;;10329582;28;20627;-90
2023/06/24 03:26:07;;;;;;;5.45;4.72;;;19.30;99.90;;;;;;10328334;28;20248;-90
2023/06/24 03:31:10;;;;;;;5.70;4.43;;;19.40;99.90;;;;;;10328463;28;20338;-90
2023/06/24 03:36:13;;;;;;;4.60;4.20;;;19.60;99.90;;;;;;10330933;28;20329;-91
2023/06/24 03:41:17;;;;;;;6.40;4.78;;;19.40;99.90;;;;;;10328703;28;20213;-90
2023/06/24 03:46:19;;;;;;;5.47;4.75;;;19.40;99.90;;;;;;10330260;28;20252;-90
2023/06/24 03:51:22;;;;;;;4.75;4.30;;;19.30;99.90;;;;;;10328119;28;20384;-90
2023/06/24 03:56:25;;;;;;;5.38;4.88;;;19.20;99.90;;;;;;10328497;28;20314;-89
2023/06/24 04:01:31;;;;;;;5.47;4.72;;;19.10;99.90;;;;;;10327924;28;20244;-90
2023/06/24 04:06:34;;;;;;;8.85;5.20;;;19.00;99.90;;;;;;10329425;28;20615;-90
2023/06/24 04:11:37;;;;;;;7.65;5.38;;;19.10;99.90;;;;;;10326741;28;20307;-90
2023/06/24 04:16:40;;;;;;;5.90;5.30;;;19.10;99.90;;;;;;10326172;28;20636;-90
2023/06/24 04:21:42;;;;;;;8.27;5.18;;;19.20;99.90;;;;;;10326825;28;20681;-91
2023/06/24 04:26:47;;;;;;;7.05;5.03;;;19.40;99.90;;;;;;10359762;28;20256;-90
2023/06/24 04:31:50;;;;;;;6.07;4.85;;;19.40;99.90;;;;;;10310441;28;20264;-90
2023/06/24 04:36:52;;;;;;;6.55;4.90;;;19.40;99.90;;;;;;10324799;28;20236;-90
2023/06/24 04:41:55;;;;;;;5.90;5.40;;;19.50;99.90;;;;;;10326580;28;20244;-91
2023/06/24 04:46:57;;;;;;;6.03;5.03;;;19.60;99.90;;;;;;10326666;28;20248;-89
2023/06/24 04:52:01;;;;;;;5.20;4.75;;;19.70;99.90;;;;;;10327387;28;20716;-90
2023/06/24 04:57:08;;;;;;;5.35;4.85;;;19.80;99.90;;;;;;10326666;28;20322;-91
2023/06/24 05:02:11;;;;;;;6.63;5.88;;;19.80;99.90;;;;;;10326750;28;20237;-90
2023/06/24 05:07:14;;;;;;;6.50;4.65;;;20.00;99.90;;;;;;10325532;28;20240;-90
2023/06/24 05:12:17;;;;;;;7.63;5.18;;;20.00;99.90;;;;;;10326151;28;20273;-90
2023/06/24 05:17:20;;;;;;;4.85;4.43;;;19.90;99.90;;;;;;10324054;28;20284;-90
2023/06/24 05:22:23;;;;;;;9.77;5.10;;;19.90;99.90;;;;;;10326843;28;20249;-90
2023/06/24 05:27:26;;;;;;;5.60;4.47;;;20.00;99.90;;;;;;10324896;28;20627;-90
2023/06/24 05:32:28;;;;;;;5.97;5.00;;;20.00;99.90;;;;;;10326113;28;20256;-89
2023/06/24 05:37:31;;;;;;;6.47;4.65;;;20.00;99.90;;;;;;10308571;28;20299;-89
2023/06/24 05:42:33;;;;;;;5.00;4.55;;;19.90;99.90;;;;;;10326255;28;20311;-91
2023/06/24 05:47:37;;;;;;;8.63;5.05;;;20.00;99.90;;;;;;10325819;28;20247;-93
2023/06/24 05:52:40;;;;;;;8.55;5.20;;;20.20;99.90;;;;;;10333735;28;20260;-91
2023/06/24 05:57:43;;;;;;;5.70;5.20;;;20.40;99.70;;;;;;10334290;28;20236;-91
2023/06/24 06:02:46;;;;;;;8.70;5.55;;;20.70;99.90;;;;;;10331989;28;20295;-92
2023/06/24 06:07:48;;;;;;;7.28;5.60;;;20.80;97.20;;;;;;10331692;28;20248;-92
2023/06/24 06:12:52;;;;;;;7.75;4.70;;;20.90;98.40;;;;;;10330838;28;20292;-93
2023/06/24 06:17:55;;;;;;;6.38;5.00;;;21.20;97.40;;;;;;10337713;28;20245;-92
2023/06/24 06:22:58;;;;;;;5.53;5.03;;;21.30;95.90;;;;;;10345376;28;20244;-91
2023/06/24 06:28:00;;;;;;;6.70;5.57;;;21.20;92.90;;;;;;10331433;28;20248;-92
2023/06/24 06:33:03;;;;;;;5.07;4.38;;;21.30;93.30;;;;;;10331841;28;20264;-92
2023/06/24 06:38:06;;;;;;;5.38;4.88;;;21.40;94.60;;;;;;10357179;28;20244;-91
2023/06/24 06:43:08;;;;;;;4.75;4.32;;;21.60;93.90;;;;;;10355317;28;20739;-92
2023/06/24 06:48:11;;;;;;;5.50;4.05;;;21.50;93.80;;;;;;10323614;28;20300;-93
2023/06/24 06:53:19;;;;;;;7.80;4.35;;;21.40;88.60;;;;;;10292816;28;20264;-91
2023/06/24 06:58:22;;;;;;;6.72;5.30;;;21.30;92.70;;;;;;10329576;28;20245;-91
2023/06/24 07:03:25;;;;;;;5.25;4.75;;;21.20;91.00;;;;;;10327603;28;20244;-91
2023/06/24 07:08:27;;;;;;;7.55;5.78;;;21.30;93.60;;;;;;10329962;28;20700;-91
2023/06/24 07:13:30;;;;;;;6.80;5.40;;;21.30;92.80;;;;;;10329409;28;20252;-92
2023/06/24 07:18:33;;;;;;;7.80;5.22;;;21.30;92.90;;;;;;10327208;28;20245;-89
2023/06/24 07:23:35;;;;;;;7.05;5.15;;;21.30;93.90;;;;;;10330323;28;20244;-90
2023/06/24 07:28:38;;;;;;;7.15;4.72;;;21.20;93.30;;;;;;10329900;28;20287;-89
2023/06/24 07:33:40;;;;;;;9.68;6.22;;;21.20;94.60;;;;;;10326505;28;20318;-89
2023/06/24 07:38:43;;;;;;;6.25;5.43;;;21.20;93.00;;;;;;10329909;28;20692;-89
2023/06/24 07:43:46;;;;;;;6.75;6.07;;;21.20;94.60;;;;;;10328794;28;20897;-89
2023/06/24 07:48:48;;;;;;;6.13;5.53;;;21.60;95.30;;;;;;10327906;28;20252;-88
2023/06/24 07:53:51;;;;;;;7.00;5.20;;;22.10;95.00;;;;;;10329134;28;20264;-89
2023/06/24 07:58:53;;;;;;;6.47;5.45;;;22.40;92.30;;;;;;10331173;28;20268;-89
2023/06/24 08:03:56;;;;;;;6.38;5.50;;;22.30;90.40;;;;;;10321834;28;20634;-89
2023/06/24 08:08:59;;;;;;;6.00;5.32;;;22.20;92.20;;;;;;10334497;28;20236;-89
2023/06/24 08:14:01;;;;;;;4.97;4.35;;;22.40;91.70;;;;;;10363582;28;20662;-88
2023/06/24 08:19:04;;;;;;;7.32;4.78;;;22.40;88.30;;;;;;10328637;28;20244;-88
2023/06/24 08:24:07;;;;;;;5.22;4.68;;;22.40;85.40;;;;;;10327062;28;20303;-88
2023/06/24 08:29:09;;;;;;;7.15;5.32;;;22.60;86.50;;;;;;10328814;28;20249;-90
2023/06/24 08:34:12;;;;;;;6.50;4.63;;;22.90;82.70;;;;;;10326126;28;20260;-89
2023/06/24 08:39:15;;;;;;;5.43;4.90;;;23.10;84.00;;;;;;10327098;28;20240;-88
2023/06/24 08:44:17;;;;;;;4.60;4.15;;;23.10;86.60;;;;;;10334091;28;20240;-90
2023/06/24 08:49:23;;;;;;;5.53;5.03;;;23.50;76.20;;;;;;10326310;28;20264;-90
2023/06/24 08:54:34;;;;;;;6.20;4.60;;;23.40;70.80;;;;;;10357429;28;20303;-90
2023/06/24 08:59:38;;;;;;;5.90;5.07;;;23.30;67.10;;;;;;10325606;28;20595;-90
2023/06/24 09:04:41;;;;;;;5.75;4.53;;;23.40;70.80;;;;;;10323746;28;20242;-90
2023/06/24 09:09:44;;;;;;;5.60;5.07;;;23.60;68.60;;;;;;10327322;28;20248;-89
2023/06/24 09:14:51;;;;;;;5.55;5.03;;;23.70;64.10;;;;;;10325307;28;20259;-88
2023/06/24 09:19:53;;;;;;;5.68;5.07;;;23.70;68.40;;;;;;10354833;28;20244;-88
2023/06/24 09:25:00;;;;;;;7.53;5.22;;;23.70;59.70;;;;;;10360759;28;20298;-88
2023/06/24 09:30:20;;;;;;;5.97;5.15;;;24.00;67.40;;;;;;10307675;28;20704;-87
2023/06/24 09:35:24;;;;;;;6.03;4.38;;;24.20;60.70;;;;;;10338391;28;20934;-87
2023/06/24 09:40:27;;;;;;;5.63;5.03;;;24.20;57.90;;;;;;10325013;28;20283;-87
2023/06/24 09:45:30;;;;;;;6.53;4.97;;;23.60;60.70;;;;;;10326109;28;20244;-88
2023/06/24 09:50:34;;;;;;;6.88;5.25;;;23.90;61.00;;;;;;10378193;28;20714;-88
2023/06/24 09:55:43;;;;;;;5.30;4.70;;;24.10;58.50;;;;;;10342852;28;20241;-88
2023/06/24 10:00:46;;;;;;;6.45;4.88;;;24.20;62.60;;;;;;10325016;28;20637;-89
2023/06/24 10:05:50;;;;;;;7.22;4.43;;;24.40;60.70;;;;;;10354032;28;20236;-89
2023/06/24 10:10:52;;;;;;;5.05;4.60;;;24.50;59.10;;;;;;10366506;28;20317;-90
2023/06/24 10:15:56;;;;;;;6.50;5.40;;;24.60;58.80;;;;;;10365181;28;20318;-88
2023/06/24 10:20:59;;;;;;;4.38;3.97;;;24.10;51.10;;;;;;10362885;28;20703;-89
2023/06/24 10:26:01;;;;;;;5.88;4.88;;;24.00;54.30;;;;;;10322138;28;20658;-89
2023/06/24 10:31:04;;;;;;;11.20;5.18;;;24.30;52.90;;;;;;10324502;28;20655;-89
2023/06/24 10:36:32;;;;;;;5.68;4.75;;;24.30;51.90;;;;;;10329584;28;20271;-89
2023/06/24 10:41:35;;;;;;;6.45;4.60;;;24.20;53.20;;;;;;10321850;28;20924;-89
2023/06/24 10:46:37;;;;;;;5.60;4.80;;;24.20;54.50;;;;;;10327067;28;20240;-88
2023/06/24 10:51:41;;;;;;;4.97;4.45;;;24.00;47.60;;;;;;10331688;28;20260;-92
2023/06/24 10:56:45;;;;;;;6.25;4.75;;;24.30;45.60;;;;;;10336756;28;20271;-91
2023/06/24 11:01:54;;;;;;;6.95;4.18;;;24.10;43.30;;;;;;10369857;28;20243;-91
2023/06/24 11:07:00;;;;;;;5.60;5.00;;;24.20;48.10;;;;;;10332790;28;20271;-89
2023/06/24 11:12:04;;;;;;;4.93;4.50;;;24.20;45.40;;;;;;10330825;28;20292;-89
2023/06/24 11:17:06;;;;;;;4.78;4.35;;;23.60;42.90;;;;;;10313702;28;20241;-90
2023/06/24 11:22:09;;;;;;;4.97;4.05;;;23.90;50.70;;;;;;10330877;28;20252;-90
2023/06/24 11:27:11;;;;;;;6.50;5.22;;;24.20;46.70;;;;;;10328646;28;20233;-90
2023/06/24 11:32:14;;;;;;;5.53;4.60;;;24.20;52.20;;;;;;10330725;28;20260;-89
2023/06/24 11:37:19;;;;;;;6.55;4.60;;;24.30;44.30;;;;;;10313046;28;20291;-89
2023/06/24 11:42:23;;;;;;;5.60;5.03;;;24.50;44.80;;;;;;10333319;28;20637;-90
2023/06/24 11:47:25;;;;;;;5.47;4.50;;;24.30;41.30;;;;;;10320671;28;20254;-89
2023/06/24 11:52:51;;;;;;;6.53;4.63;;;24.40;42.80;;;;;;10290221;28;20715;-90
2023/06/24 11:58:02;;;;;;;4.45;4.05;;;24.80;45.20;;;;;;10316562;28;20271;-92
2023/06/24 12:03:06;;;;;;;6.93;4.63;;;24.70;43.30;;;;;;10341201;28;20271;-90
2023/06/24 12:08:15;;;;;;;6.88;4.75;;;24.90;43.50;;;;;;10357634;28;20299;-91
2023/06/24 12:13:18;;;;;;;5.30;4.75;;;24.90;40.70;;;;;;10357413;28;20315;-90
2023/06/24 12:18:21;;;;;;;7.55;5.07;;;24.90;39.00;;;;;;10328293;28;20260;-90
2023/06/24 12:23:23;;;;;;;5.88;4.60;;;24.60;38.60;;;;;;10330753;28;20244;-91
2023/06/24 12:28:27;;;;;;;5.78;4.30;;;24.70;45.50;;;;;;10312483;28;20306;-90
2023/06/24 12:33:30;;;;;;;6.70;4.40;;;25.00;44.90;;;;;;10351050;28;20328;-89
2023/06/24 12:38:33;;;;;;;5.28;4.63;;;25.10;45.10;;;;;;10324898;28;20237;-91
2023/06/24 12:43:35;;;;;;;6.80;4.53;;;25.20;43.50;;;;;;10326690;28;20248;-91
2023/06/24 12:48:38;;;;;;;5.15;4.40;;;25.00;40.60;;;;;;10310259;28;20256;-88
2023/06/24 12:53:40;;;;;;;4.72;3.78;;;24.90;43.30;;;;;;10326049;28;20700;-91
2023/06/24 12:58:43;;;;;;;6.22;4.72;;;25.00;40.90;;;;;;10324774;28;20295;-88
2023/06/24 13:03:45;;;;;;;4.38;3.97;;;25.20;37.00;;;;;;10325398;28;20244;-89
2023/06/24 13:08:48;;;;;;;9.48;4.03;;;25.40;42.30;;;;;;10324035;28;20248;-91
2023/06/24 13:13:51;;;;;;;4.65;4.32;;;25.40;40.60;;;;;;10322662;28;20264;-90
2023/06/24 13:18:53;;;;;;;5.30;4.53;;;25.50;37.10;;;;;;10326885;28;20245;-90
2023/06/24 13:23:56;;;;;;;6.82;4.40;;;25.40;33.70;;;;;;10324613;28;20264;-90
2023/06/24 13:28:58;;;;;;;5.47;4.85;;;25.30;31.70;;;;;;10326831;28;20249;-90
2023/06/24 13:34:01;;;;;;;6.03;5.43;;;25.40;34.50;;;;;;10315336;28;20287;-90
2023/06/24 13:39:08;;;;;;;5.65;5.03;;;25.50;36.80;;;;;;10324586;28;20228;-91
2023/06/24 13:44:11;;;;;;;4.82;4.40;;;25.60;40.20;;;;;;10338171;28;20295;-90
2023/06/24 13:49:14;;;;;;;6.55;5.03;;;25.80;39.30;;;;;;10325438;28;20256;-90
2023/06/24 13:54:17;;;;;;;4.65;4.25;;;25.90;37.30;;;;;;10306290;28;20702;-92
2023/06/24 13:59:19;;;;;;;7.68;5.00;;;25.80;35.60;;;;;;10319079;28;20646;-91
2023/06/24 14:04:22;;;;;;;5.00;4.57;;;26.00;31.70;;;;;;10323686;28;20249;-92
2023/06/24 14:09:25;;;;;;;6.10;4.63;;;26.10;36.60;;;;;;10327406;28;20298;-90
2023/06/24 14:14:28;;;;;;;5.55;4.82;;;25.60;30.00;;;;;;10332158;28;20294;-92
2023/06/24 14:19:30;;;;;;;6.03;5.15;;;25.50;34.10;;;;;;10331869;28;20217;-90
2023/06/24 14:24:33;;;;;;;6.22;5.15;;;25.60;34.40;;;;;;10334034;28;20251;-91
2023/06/24 14:29:35;;;;;;;7.38;5.20;;;25.80;36.90;;;;;;10349248;28;20241;-91
2023/06/24 14:34:38;;;;;;;5.22;4.57;;;25.80;34.20;;;;;;10307557;28;20667;-90
2023/06/24 14:39:41;;;;;;;8.57;5.13;;;25.80;33.10;;;;;;10329540;28;21049;-91
2023/06/24 14:44:43;;;;;;;4.75;4.32;;;25.80;34.30;;;;;;10332334;28;20232;-91
2023/06/24 14:49:46;;;;;;;9.02;4.93;;;25.70;39.20;;;;;;10332165;28;20244;-91
2023/06/24 14:54:49;;;;;;;5.35;4.85;;;25.80;36.70;;;;;;10369974;28;20264;-90
2023/06/24 14:59:52;;;;;;;5.32;4.93;;;25.70;34.40;;;;;;10331468;28;20248;-91
2023/06/24 15:04:54;;;;;;;6.47;5.03;;;25.60;33.30;;;;;;10330027;28;20674;-90
2023/06/24 15:09:57;;;;;;;6.07;4.80;;;25.70;39.60;;;;;;10331541;28;20245;-91
2023/06/24 15:14:59;;;;;;;6.22;5.63;;;25.70;37.40;;;;;;10331322;28;20323;-91
2023/06/24 15:20:02;;;;;;;5.57;4.65;;;25.70;36.70;;;;;;10331708;28;20714;-90
2023/06/24 15:25:05;;;;;;;6.85;6.20;;;25.80;38.40;;;;;;10329652;28;20598;-92
2023/06/24 15:30:09;;;;;;;5.55;5.05;;;25.60;29.60;;;;;;10326068;28;20702;-91
2023/06/24 15:35:11;;;;;;;9.35;6.43;;;25.60;34.90;;;;;;10328767;28;20323;-89
2023/06/24 15:40:14;;;;;;;5.97;5.38;;;25.80;31.10;;;;;;10330635;28;20240;-90
2023/06/24 15:45:17;;;;;;;4.85;4.43;;;25.80;33.10;;;;;;10313086;28;20216;-91
2023/06/24 15:50:19;;;;;;;5.95;5.35;;;25.70;39.30;;;;;;10334595;28;20713;-91
2023/06/24 15:55:22;;;;;;;13.60;6.15;;;25.50;33.50;;;;;;10332122;28;20264;-91
2023/06/24 16:00:24;;;;;;;6.47;5.18;;;25.30;32.30;;;;;;10311645;28;20762;-90
2023/06/24 16:05:27;;;;;;;7.85;5.72;;;25.40;38.60;;;;;;10328545;28;20948;-90
2023/06/24 16:10:29;;;;;;;6.45;4.28;;;25.40;34.70;;;;;;10332484;28;20241;-90
2023/06/24 16:15:32;;;;;;;5.38;4.88;;;25.50;40.70;;;;;;10326971;28;20260;-90
2023/06/24 16:20:36;;;;;;;5.53;4.95;;;25.60;38.50;;;;;;10304271;28;20621;-90
2023/06/24 16:25:39;;;;;;;6.90;5.38;;;25.70;39.60;;;;;;10322065;28;20237;-91
2023/06/24 16:30:41;;;;;;;5.80;5.30;;;25.50;31.10;;;;;;10332684;28;20267;-93
2023/06/24 16:35:44;;;;;;;5.20;4.78;;;25.50;37.60;;;;;;10327007;28;20808;-91
2023/06/24 16:40:46;;;;;;;6.68;6.07;;;25.40;34.50;;;;;;10327180;28;20260;-91
2023/06/24 16:45:49;;;;;;;5.97;5.38;;;25.60;34.20;;;;;;10358514;28;20768;-93
2023/06/24 16:50:51;;;;;;;7.10;5.40;;;25.70;40.00;;;;;;10309422;28;20658;-93
2023/06/24 16:55:54;;;;;;;6.32;5.70;;;25.60;36.60;;;;;;9977057;28;10000405;-93
2023/06/24 17:00:57;;;;;;;5.03;4.60;;;25.40;34.50;;;;;;10326830;28;20314;-93
2023/06/24 17:05:59;;;;;;;5.85;5.20;;;25.20;39.40;;;;;;10323533;28;20295;-90
2023/06/24 17:11:02;;;;;;;7.38;6.68;;;25.10;38.60;;;;;;10326801;28;20240;-90
2023/06/24 17:16:07;;;;;;;5.63;5.03;;;24.90;38.10;;;;;;10320801;28;20331;-90
2023/06/24 17:21:10;;;;;;;5.18;4.68;;;24.90;42.50;;;;;;10339653;28;20991;-91
2023/06/24 17:26:13;;;;;;;6.82;6.15;;;24.80;44.40;;;;;;10324872;28;20319;-90
2023/06/24 17:31:15;;;;;;;6.68;5.18;;;24.70;37.00;;;;;;10321445;28;20237;-90
2023/06/24 17:36:18;;;;;;;5.38;4.88;;;24.50;44.10;;;;;;10320878;28;20275;-90
2023/06/24 17:41:22;;;;;;;5.68;5.05;;;24.50;45.70;;;;;;10321697;28;20268;-88
2023/06/24 17:46:25;;;;;;;6.10;5.15;;;24.50;42.10;;;;;;10326578;28;20295;-89
2023/06/24 17:51:30;;;;;;;7.80;5.97;;;24.50;44.00;;;;;;10330528;28;20300;-90
2023/06/24 17:56:33;;;;;;;6.28;5.18;;;24.50;45.10;;;;;;10342756;28;20263;-89
2023/06/24 18:01:36;;;;;;;7.10;6.13;;;24.40;48.00;;;;;;10333154;28;20292;-90
2023/06/24 18:06:39;;;;;;;7.35;6.63;;;24.40;45.40;;;;;;10327785;28;20771;-90
2023/06/24 18:11:42;;;;;;;8.07;6.30;;;24.30;47.60;;;;;;10359686;28;20700;-90
2023/06/24 18:16:49;;;;;;;9.55;7.43;;;24.20;48.10;;;;;;10317187;28;21109;-89
2023/06/24 18:21:52;;;;;;;7.00;6.32;;;24.00;42.60;;;;;;10330582;28;20233;-89
2023/06/24 18:26:55;;;;;;;7.82;6.15;;;23.80;47.90;;;;;;10330665;28;20240;-91
2023/06/24 18:31:57;;;;;;;8.98;7.05;;;23.60;49.70;;;;;;10334274;28;20248;-89
2023/06/24 18:37:00;;;;;;;8.13;7.13;;;23.40;49.80;;;;;;10345554;28;20743;-88
2023/06/24 18:42:03;;;;;;;7.85;7.05;;;23.20;50.10;;;;;;10333166;28;20701;-88
2023/06/24 18:47:05;;;;;;;8.18;7.00;;;23.10;49.60;;;;;;10305824;28;20253;-88
2023/06/24 18:52:08;;;;;;;8.82;7.13;;;22.90;48.80;;;;;;10290764;28;20241;-88
2023/06/24 18:57:11;;;;;;;8.52;6.85;;;22.80;49.30;;;;;;10304942;28;20265;-87
2023/06/24 19:02:14;;;;;;;7.78;6.97;;;22.70;51.00;;;;;;10291586;28;20685;-88
2023/06/24 19:07:16;;;;;;;7.78;7.00;;;22.40;52.00;;;;;;10291371;28;20306;-87
2023/06/24 19:12:19;;;;;;;8.45;6.65;;;22.30;52.80;;;;;;10305298;28;20755;-87
2023/06/24 19:17:21;;;;;;;7.65;6.57;;;22.20;54.40;;;;;;10290750;28;20265;-88
2023/06/24 19:22:24;;;;;;;7.63;6.43;;;22.10;53.80;;;;;;10288993;28;20646;-88
2023/06/24 19:27:26;;;;;;;8.88;6.70;;;22.00;57.10;;;;;;10290757;28;20237;-86
2023/06/24 19:32:29;;;;;;;7.25;6.53;;;21.90;61.90;;;;;;10345849;28;20276;-86
2023/06/24 19:37:31;;;;;;;7.60;6.22;;;21.80;57.60;;;;;;10328130;28;20269;-87
2023/06/24 19:42:34;;;;;;;9.52;6.43;;;21.60;58.90;;;;;;10328196;28;20656;-88
2023/06/24 19:47:36;;;;;;;6.97;6.10;;;21.50;58.50;;;;;;10334639;28;20623;-87
2023/06/24 19:52:39;;;;;;;7.57;6.47;;;21.30;61.50;;;;;;10342991;28;20248;-87
2023/06/24 19:57:41;;;;;;;9.45;6.28;;;21.20;61.60;;;;;;10340626;28;20697;-87
2023/06/24 20:02:44;;;;;;;7.85;5.72;;;21.10;63.60;;;;;;10354476;28;20314;-88
2023/06/24 20:07:47;;;;;;;7.68;6.60;;;20.90;63.20;;;;;;10333678;28;20682;-87
2023/06/24 20:12:49;;;;;;;6.05;5.38;;;20.80;65.50;;;;;;10348569;28;20742;-86
2023/06/24 20:17:52;;;;;;;8.20;6.13;;;20.60;66.40;;;;;;10331733;28;20686;-87
2023/06/24 20:22:54;;;;;;;6.85;5.80;;;20.50;64.50;;;;;;10352919;28;20240;-87
2023/06/24 20:27:57;;;;;;;5.72;5.13;;;20.40;66.80;;;;;;10359924;28;20239;-87
2023/06/24 20:32:59;;;;;;;8.40;5.32;;;20.20;64.80;;;;;;10327764;28;20291;-87
2023/06/24 20:38:02;;;;;;;6.78;5.28;;;20.10;68.20;;;;;;10362076;28;20702;-88
2023/06/24 20:43:05;;;;;;;6.25;5.65;;;20.10;67.50;;;;;;10333661;28;20334;-87
2023/06/24 20:48:08;;;;;;;6.80;5.47;;;20.00;73.70;;;;;;10349643;28;20247;-88
2023/06/24 20:53:11;;;;;;;7.35;5.43;;;19.90;70.30;;;;;;10367528;28;20853;-87
2023/06/24 20:58:13;;;;;;;5.45;4.90;;;20.10;74.80;;;;;;10346667;28;20244;-88
2023/06/24 21:03:16;;;;;;;5.65;4.85;;;20.30;72.60;;;;;;10327532;28;20243;-87
2023/06/24 21:08:19;;;;;;;6.68;4.50;;;;;;;;;;10365785;28;20270;-87
2023/06/24 21:13:23;;;;;;;5.35;4.50;;;19.50;70.00;;;;;;10336202;28;20836;-87
2023/06/24 21:18:26;;;;;;;5.28;4.68;;;19.40;73.20;;;;;;10363227;28;20672;-89
2023/06/24 21:23:29;;;;;;;4.78;4.28;;;19.30;74.90;;;;;;10357355;28;20240;-87
2023/06/24 21:28:31;;;;;;;5.63;5.13;;;19.20;76.70;;;;;;10343124;28;20232;-89
2023/06/24 21:33:34;;;;;;;5.68;5.07;;;19.10;77.70;;;;;;10307238;28;20236;-88
2023/06/24 21:38:37;;;;;;;5.45;4.95;;;;;;;;;;10325254;28;20237;-88
2023/06/24 21:43:41;;;;;;;5.85;4.88;;;18.90;83.00;;;;;;10326766;28;20252;-88
2023/06/24 21:48:45;;;;;;;8.20;4.68;;;;;;;;;;10329886;28;20253;-88
2023/06/24 21:53:49;;;;;;;4.97;4.47;;;18.30;99.10;;;;;;10340015;28;20264;-88
2023/06/24 21:58:52;;;;;;;5.65;4.68;;;18.10;87.90;;;;;;10334981;28;20240;-88
2023/06/24 22:03:54;;;;;;;5.60;4.63;;;17.90;90.90;;;;;;10359378;28;20310;-89
2023/06/24 22:08:57;;;;;;;4.57;3.95;;;17.70;91.50;;;;;;10324430;28;20228;-88
2023/06/24 22:14:00;;;;;;;5.30;4.80;;;17.20;92.40;;;;;;10352019;28;20271;-89
2023/06/24 22:19:02;;;;;;;6.18;4.40;;;16.90;95.30;;;;;;10324787;28;20268;-89
2023/06/24 22:24:05;;;;;;;11.23;5.20;;;16.90;96.90;;;;;;10353940;28;20237;-89
2023/06/24 22:29:08;;;;;;;5.57;4.10;;;16.90;98.90;;;;;;10333081;28;20295;-89
2023/06/24 22:34:12;;;;;;;4.35;3.95;;;16.80;99.50;;;;;;10316464;28;20307;-89
2023/06/24 22:39:14;;;;;;;4.97;4.47;;;16.60;99.90;;;;;;10324810;28;20999;-89
2023/06/24 22:44:20;;;;;;;4.95;4.45;;;16.60;99.90;;;;;;10330659;28;20256;-89
2023/06/24 22:49:24;;;;;;;6.43;4.57;;;16.70;99.90;;;;;;10332163;28;20307;-89
2023/06/24 22:54:27;;;;;;;5.32;4.72;;;16.60;99.90;;;;;;10337663;28;20283;-89
2023/06/24 22:59:29;;;;;;;5.57;4.07;;;16.20;99.90;;;;;;10330210;28;20240;-89
2023/06/24 23:04:32;;;;;;;5.93;4.13;;;15.70;99.90;;;;;;10332508;28;20244;-89
2023/06/24 23:09:35;;;;;;;5.57;5.05;;;15.50;99.90;;;;;;10332204;28;20229;-89
2023/06/24 23:14:39;;;;;;;9.23;5.13;;;15.50;99.90;;;;;;10328727;28;20252;-90
2023/06/24 23:19:41;;;;;;;10.82;4.65;;;15.40;99.90;;;;;;10330288;28;20236;-89
2023/06/24 23:24:44;;;;;;;9.10;4.10;;;15.40;99.90;;;;;;10326910;28;20236;-89
2023/06/24 23:29:56;;;;;;;5.05;4.43;;;15.10;99.90;;;;;;10327675;28;20283;-89
2023/06/24 23:34:59;;;;;;;5.07;4.25;;;15.10;99.90;;;;;;10341498;28;20267;-89
2023/06/24 23:40:06;;;;;;;6.18;4.35;;;15.20;99.90;;;;;;10370365;28;20294;-89
2023/06/24 23:45:09;;;;;;;9.73;4.43;;;15.20;99.90;;;;;;10349167;28;20299;-89
2023/06/24 23:50:11;;;;;;;6.00;5.05;;;15.40;99.90;;;;;;10328253;28;20705;-89
2023/06/24 23:55:14;;;;;;;11.10;6.18;;;15.50;99.90;;;;;;10351138;28;20271;-89
